createdAt,value
2018-06-19T00:00:26.342Z,33.23
2018-06-19T00:02:28.419Z,39.50
2018-06-19T00:04:30.478Z,46.63
2018-06-19T00:06:32.522Z,33.37
2018-06-19T00:08:34.594Z,47.23
2018-06-19T00:10:36.652Z,38.53
2018-06-19T00:12:38.727Z,47.27
2018-06-19T00:14:40.796Z,43.00
2018-06-19T00:16:42.913Z,38.43
2018-06-19T00:18:48.250Z,44.70
2018-06-19T00:20:51.273Z,37.77
2018-06-19T00:22:53.336Z,42.93
2018-06-19T00:24:55.389Z,38.27
2018-06-19T00:26:57.522Z,38.20
2018-06-19T00:28:59.770Z,35.27
2018-06-19T00:31:01.839Z,35.63
2018-06-19T00:33:03.930Z,38.83
2018-06-19T00:35:05.970Z,40.70
2018-06-19T00:37:08.022Z,41.33
2018-06-19T00:39:11.342Z,43.57
2018-06-19T00:41:13.409Z,34.23
2018-06-19T00:43:15.490Z,42.90
2018-06-19T00:45:17.541Z,38.50
2018-06-19T00:47:19.589Z,62.07
2018-06-19T00:49:21.627Z,41.90
2018-06-19T00:51:23.677Z,36.33
2018-06-19T00:53:25.731Z,38.43
2018-06-19T00:55:27.801Z,43.73
2018-06-19T00:57:29.869Z,45.10
2018-06-19T00:59:31.911Z,35.53
2018-06-19T01:01:33.977Z,44.37
2018-06-19T01:03:36.092Z,45.03
2018-06-19T01:05:38.142Z,49.43
2018-06-19T01:07:40.213Z,44.83
2018-06-19T01:09:42.259Z,47.23
2018-06-19T01:11:44.313Z,51.77
2018-06-19T01:13:46.375Z,41.83
2018-06-19T01:15:48.412Z,53.27
2018-06-19T01:17:50.464Z,54.10
2018-06-19T01:19:52.586Z,42.07
2018-06-19T01:21:54.624Z,51.50
2018-06-19T01:23:56.687Z,48.83
2018-06-19T01:25:58.766Z,47.43
2018-06-19T01:28:00.821Z,55.30
2018-06-19T01:30:02.898Z,43.43
2018-06-19T01:32:05.273Z,58.47
2018-06-19T01:34:07.343Z,47.77
2018-06-19T01:36:09.389Z,49.70
2018-06-19T01:38:11.574Z,55.10
2018-06-19T01:40:13.524Z,60.57
2018-06-19T01:42:15.581Z,64.57
2018-06-19T01:44:17.629Z,54.17
2018-06-19T01:46:19.646Z,39.30
2018-06-19T01:48:21.708Z,43.67
2018-06-19T01:50:23.805Z,55.67
2018-06-19T01:52:25.858Z,57.03
2018-06-19T01:54:27.913Z,51.00
2018-06-19T01:56:29.971Z,67.67
2018-06-19T01:58:32.039Z,44.53
2018-06-19T02:00:34.097Z,47.97
2018-06-19T02:02:36.170Z,60.40
2018-06-19T02:04:38.261Z,56.17
2018-06-19T02:06:40.324Z,60.77
2018-06-19T02:08:42.674Z,51.90
2018-06-19T02:10:44.727Z,60.90
2018-06-19T02:12:46.787Z,52.23
2018-06-19T02:14:48.846Z,65.87
2018-06-19T02:16:50.897Z,65.33
2018-06-19T02:18:52.959Z,64.70
2018-06-19T02:20:55.110Z,63.00
2018-06-19T02:22:57.169Z,67.00
2018-06-19T02:24:59.235Z,57.17
2018-06-19T02:27:01.310Z,60.93
2018-06-19T02:29:03.405Z,72.17
2018-06-19T02:31:05.503Z,61.57
2018-06-19T02:33:07.563Z,61.60
2018-06-19T02:35:09.618Z,49.53
2018-06-19T02:37:11.678Z,40.13
2018-06-19T02:39:13.736Z,54.57
2018-06-19T02:41:15.784Z,53.97
2018-06-19T02:43:17.853Z,45.30
2018-06-19T02:45:19.950Z,39.27
2018-06-19T02:47:21.994Z,48.00
2018-06-19T02:49:24.036Z,54.63
2018-06-19T02:51:26.093Z,37.43
2018-06-19T02:53:28.154Z,45.50
2018-06-19T02:55:30.194Z,41.13
2018-06-19T02:57:32.243Z,36.53
2018-06-19T02:59:34.294Z,47.73
2018-06-19T03:01:36.346Z,52.83
2018-06-19T03:03:38.401Z,39.33
2018-06-19T03:05:40.599Z,46.57
2018-06-19T03:07:42.656Z,53.13
2018-06-19T03:09:44.735Z,56.70
2018-06-19T03:11:46.797Z,50.23
2018-06-19T03:13:48.927Z,42.93
2018-06-19T03:15:50.929Z,34.63
2018-06-19T03:17:53.008Z,44.33
2018-06-19T03:19:55.128Z,39.13
2018-06-19T03:21:57.189Z,45.90
2018-06-19T03:23:59.281Z,50.77
2018-06-19T03:26:01.321Z,51.13
2018-06-19T03:28:03.388Z,68.23
2018-06-19T03:30:05.512Z,60.70
2018-06-19T03:32:07.533Z,64.73
2018-06-19T03:34:09.676Z,53.13
2018-06-19T03:36:11.782Z,60.43
2018-06-19T03:38:13.873Z,54.27
2018-06-19T03:40:15.982Z,70.57
2018-06-19T03:42:18.040Z,76.83
2018-06-19T03:44:20.153Z,57.90
2018-06-19T03:46:22.234Z,62.87
2018-06-19T03:48:24.297Z,62.63
2018-06-19T03:50:26.355Z,60.63
2018-06-19T03:52:28.413Z,52.13
2018-06-19T03:54:30.470Z,73.40
2018-06-19T03:56:32.514Z,61.50
2018-06-19T03:58:34.581Z,52.10
2018-06-19T04:00:36.642Z,58.87
2018-06-19T04:02:38.697Z,49.80
2018-06-19T04:04:40.754Z,60.23
2018-06-19T04:06:42.820Z,63.87
2018-06-19T04:08:44.886Z,58.30
2018-06-19T04:10:46.973Z,54.07
2018-06-19T04:12:48.991Z,59.08
2018-06-19T04:14:51.032Z,46.50
2018-06-19T04:16:53.090Z,44.57
2018-06-19T04:18:55.149Z,54.07
2018-06-19T04:20:57.184Z,48.40
2018-06-19T04:22:59.242Z,43.93
2018-06-19T04:25:01.292Z,43.03
2018-06-19T04:27:03.353Z,48.30
2018-06-19T04:29:05.440Z,32.20
2018-06-19T04:31:07.501Z,41.50
2018-06-19T04:33:09.536Z,46.40
2018-06-19T04:35:12.371Z,43.13
2018-06-19T04:37:14.545Z,37.37
2018-06-19T04:39:16.610Z,35.70
2018-06-19T04:41:18.669Z,43.03
2018-06-19T04:43:20.724Z,36.37
2018-06-19T04:45:22.767Z,31.73
2018-06-19T04:47:24.838Z,38.33
2018-06-19T04:49:26.902Z,44.40
2018-06-19T04:51:28.977Z,31.93
2018-06-19T04:53:31.046Z,32.33
2018-06-19T04:55:33.122Z,32.57
2018-06-19T04:57:35.163Z,28.70
2018-06-19T04:59:37.348Z,34.37
2018-06-19T05:01:39.430Z,33.03
2018-06-19T05:03:41.555Z,34.60
2018-06-19T05:05:43.561Z,27.73
2018-06-19T05:07:45.672Z,25.97
2018-06-19T05:09:47.814Z,32.33
2018-06-19T05:11:49.911Z,27.37
2018-06-19T05:13:51.969Z,23.10
2018-06-19T05:15:54.014Z,26.27
2018-06-19T05:17:56.054Z,23.37
2018-06-19T05:19:58.119Z,25.17
2018-06-19T05:22:00.253Z,30.33
2018-06-19T05:24:02.634Z,18.03
2018-06-19T05:26:04.714Z,21.80
2018-06-19T05:28:06.795Z,27.30
2018-06-19T05:30:08.896Z,20.33
2018-06-19T05:32:10.956Z,21.07
2018-06-19T05:34:13.020Z,19.97
2018-06-19T05:36:15.124Z,31.73
2018-06-19T05:38:17.165Z,23.23
2018-06-19T05:40:19.209Z,17.70
2018-06-19T05:42:21.278Z,25.40
2018-06-19T05:44:23.341Z,17.30
2018-06-19T05:46:25.425Z,23.53
2018-06-19T05:48:27.528Z,15.33
2018-06-19T05:50:29.622Z,17.50
2018-06-19T05:52:31.866Z,14.80
2018-06-19T05:54:34.122Z,17.63
2018-06-19T05:56:36.277Z,23.80
2018-06-19T05:58:38.329Z,16.53
2018-06-19T06:00:40.379Z,15.53
2018-06-19T06:02:42.436Z,14.60
2018-06-19T06:04:44.494Z,15.00
2018-06-19T06:06:46.602Z,17.40
2018-06-19T06:08:48.670Z,17.37
2018-06-19T06:10:50.717Z,25.73
2018-06-19T06:12:52.837Z,20.17
2018-06-19T06:14:54.926Z,23.03
2018-06-19T06:16:57.036Z,13.70
2018-06-19T06:18:59.097Z,15.53
2018-06-19T06:21:01.167Z,20.23
2018-06-19T06:23:03.263Z,20.47
2018-06-19T06:25:05.359Z,19.53
2018-06-19T06:27:07.992Z,17.77
2018-06-19T06:29:10.098Z,15.83
2018-06-19T06:31:12.165Z,18.30
2018-06-19T06:33:14.253Z,14.00
2018-06-19T06:35:16.437Z,24.50
2018-06-19T06:37:18.537Z,13.70
2018-06-19T06:39:20.677Z,20.50
2018-06-19T06:41:22.750Z,13.53
2018-06-19T06:43:24.921Z,22.55
2018-06-19T06:45:27.018Z,19.67
2018-06-19T06:47:29.098Z,15.37
2018-06-19T06:49:31.163Z,11.27
2018-06-19T06:51:33.254Z,16.20
2018-06-19T06:53:35.318Z,17.57
2018-06-19T06:55:37.406Z,16.93
2018-06-19T06:57:39.487Z,13.97
2018-06-19T06:59:41.584Z,19.80
2018-06-19T07:01:43.669Z,19.37
2018-06-19T07:03:45.776Z,30.70
2018-06-19T07:05:47.848Z,18.27
2018-06-19T07:07:49.939Z,12.53
2018-06-19T07:09:52.111Z,14.40
2018-06-19T07:11:54.127Z,14.60
2018-06-19T07:13:56.224Z,13.80
2018-06-19T07:15:58.360Z,18.40
2018-06-19T07:18:00.424Z,13.40
2018-06-19T07:20:02.578Z,20.07
2018-06-19T07:22:04.911Z,16.57
2018-06-19T07:24:07.121Z,11.13
2018-06-19T07:26:09.244Z,18.50
2018-06-19T07:28:11.313Z,20.10
2018-06-19T07:30:13.609Z,18.30
2018-06-19T07:32:15.668Z,13.13
2018-06-19T07:34:17.753Z,18.77
2018-06-19T07:36:19.847Z,12.40
2018-06-19T07:38:22.005Z,25.13
2018-06-19T07:40:24.093Z,14.50
2018-06-19T07:42:26.185Z,14.97
2018-06-19T07:44:28.287Z,17.30
2018-06-19T07:46:30.338Z,13.80
2018-06-19T07:48:32.396Z,16.90
2018-06-19T07:50:34.450Z,14.97
2018-06-19T07:52:36.523Z,16.40
2018-06-19T07:54:38.630Z,17.03
2018-06-19T07:56:40.677Z,19.00
2018-06-19T07:58:42.750Z,21.30
2018-06-19T08:00:44.846Z,21.23
2018-06-19T08:02:46.909Z,18.53
2018-06-19T08:04:48.991Z,14.23
2018-06-19T08:06:51.062Z,15.27
2018-06-19T08:08:53.180Z,15.87
2018-06-19T08:10:55.364Z,16.70
2018-06-19T08:12:57.412Z,17.23
2018-06-19T08:14:59.467Z,20.43
2018-06-19T08:17:01.506Z,19.83
2018-06-19T08:19:03.642Z,44.70
2018-06-19T08:21:06.089Z,19.50
2018-06-19T08:23:08.129Z,17.60
2018-06-19T08:25:10.162Z,16.53
2018-06-19T08:27:12.282Z,17.63
2018-06-19T08:29:14.338Z,15.50
2018-06-19T08:31:16.369Z,15.80
2018-06-19T08:33:18.439Z,16.33
2018-06-19T08:35:20.485Z,17.00
2018-06-19T08:37:22.541Z,14.20
2018-06-19T08:39:24.681Z,20.67
2018-06-19T08:41:26.762Z,24.07
2018-06-19T08:43:28.826Z,18.27
2018-06-19T08:45:30.991Z,14.90
2018-06-19T08:47:33.057Z,18.20
2018-06-19T08:49:35.159Z,18.63
2018-06-19T08:51:37.285Z,21.10
2018-06-19T08:53:39.401Z,24.43
2018-06-19T08:55:41.505Z,21.50
2018-06-19T08:57:43.615Z,18.70
2018-06-19T08:59:45.705Z,21.33
2018-06-19T09:01:47.840Z,14.33
2018-06-19T09:03:49.962Z,20.73
2018-06-19T09:05:52.154Z,25.57
2018-06-19T09:07:54.336Z,23.00
2018-06-19T09:09:56.460Z,18.83
2018-06-19T09:11:58.627Z,17.60
2018-06-19T09:14:00.767Z,24.00
2018-06-19T09:16:02.975Z,18.20
2018-06-19T09:18:05.219Z,24.70
2018-06-19T09:20:07.407Z,24.30
2018-06-19T09:22:09.518Z,29.43
2018-06-19T09:24:11.671Z,27.37
2018-06-19T09:26:13.750Z,29.57
2018-06-19T09:28:15.982Z,35.00
